sensor_id;sensor_type;location;lat;lon;timestamp;P1;durP1;ratioP1;P2;durP2;ratioP2
36963;SDS011;22878;48.616;35.326;2023-08-08T00:00:05;6.10;;;2.90;;
36963;SDS011;22878;48.616;35.326;2023-08-08T00:02:31;9.90;;;3.40;;
36963;SDS011;22878;48.616;35.326;2023-08-08T00:04:57;5.70;;;3.30;;
36963;SDS011;22878;48.616;35.326;2023-08-08T00:07:22;7.80;;;3.40;;
36963;SDS011;22878;48.616;35.326;2023-08-08T00:09:48;4.10;;;3.00;;
36963;SDS011;22878;48.616;35.326;2023-08-08T00:12:14;4.40;;;3.00;;
36963;SDS011;22878;48.616;35.326;2023-08-08T00:14:39;9.20;;;3.40;;
36963;SDS011;22878;48.616;35.326;2023-08-08T00:17:05;7.90;;;3.40;;
36963;SDS011;22878;48.616;35.326;2023-08-08T00:19:30;5.20;;;3.20;;
36963;SDS011;22878;48.616;35.326;2023-08-08T00:21:56;5.10;;;3.30;;
36963;SDS011;22878;48.616;35.326;2023-08-08T00:24:21;8.70;;;2.80;;
36963;SDS011;22878;48.616;35.326;2023-08-08T00:26:47;21.50;;;3.50;;
36963;SDS011;22878;48.616;35.326;2023-08-08T00:29:12;5.50;;;3.30;;
36963;SDS011;22878;48.616;35.326;2023-08-08T00:31:38;7.40;;;3.20;;
36963;SDS011;22878;48.616;35.326;2023-08-08T00:34:03;9.20;;;3.20;;
36963;SDS011;22878;48.616;35.326;2023-08-08T00:36:29;5.00;;;3.20;;
36963;SDS011;22878;48.616;35.326;2023-08-08T00:38:54;8.20;;;3.30;;
36963;SDS011;22878;48.616;35.326;2023-08-08T00:41:20;11.70;;;3.20;;
36963;SDS011;22878;48.616;35.326;2023-08-08T00:43:46;6.90;;;3.20;;
36963;SDS011;22878;48.616;35.326;2023-08-08T00:46:12;8.70;;;3.30;;
36963;SDS011;22878;48.616;35.326;2023-08-08T00:48:37;5.70;;;3.20;;
36963;SDS011;22878;48.616;35.326;2023-08-08T00:51:03;13.90;;;3.80;;
36963;SDS011;22878;48.616;35.326;2023-08-08T00:53:29;9.30;;;3.20;;
36963;SDS011;22878;48.616;35.326;2023-08-08T00:55:56;7.40;;;3.90;;
36963;SDS011;22878;48.616;35.326;2023-08-08T00:58:23;7.40;;;3.20;;
36963;SDS011;22878;48.616;35.326;2023-08-08T01:00:49;6.00;;;3.40;;
36963;SDS011;22878;48.616;35.326;2023-08-08T01:03:14;6.50;;;3.50;;
36963;SDS011;22878;48.616;35.326;2023-08-08T01:06:16;5.10;;;3.10;;
36963;SDS011;22878;48.616;35.326;2023-08-08T01:09:09;7.50;;;3.30;;
36963;SDS011;22878;48.616;35.326;2023-08-08T01:11:42;9.60;;;3.50;;
36963;SDS011;22878;48.616;35.326;2023-08-08T01:14:08;5.80;;;2.80;;
36963;SDS011;22878;48.616;35.326;2023-08-08T01:16:34;7.60;;;3.00;;
36963;SDS011;22878;48.616;35.326;2023-08-08T01:19:00;7.20;;;3.30;;
36963;SDS011;22878;48.616;35.326;2023-08-08T01:21:27;6.90;;;3.60;;
36963;SDS011;22878;48.616;35.326;2023-08-08T01:24:12;9.70;;;3.00;;
36963;SDS011;22878;48.616;35.326;2023-08-08T01:26:48;8.30;;;3.40;;
36963;SDS011;22878;48.616;35.326;2023-08-08T01:29:14;7.40;;;3.10;;
36963;SDS011;22878;48.616;35.326;2023-08-08T01:31:40;6.50;;;2.80;;
36963;SDS011;22878;48.616;35.326;2023-08-08T01:34:06;5.70;;;2.80;;
36963;SDS011;22878;48.616;35.326;2023-08-08T01:36:44;6.00;;;2.80;;
36963;SDS011;22878;48.616;35.326;2023-08-08T01:39:17;4.30;;;2.60;;
36963;SDS011;22878;48.616;35.326;2023-08-08T01:41:45;4.90;;;2.80;;
36963;SDS011;22878;48.616;35.326;2023-08-08T01:44:13;5.00;;;2.80;;
36963;SDS011;22878;48.616;35.326;2023-08-08T01:46:39;5.40;;;2.90;;
36963;SDS011;22878;48.616;35.326;2023-08-08T01:49:05;4.50;;;2.70;;
36963;SDS011;22878;48.616;35.326;2023-08-08T01:51:30;5.70;;;2.90;;
36963;SDS011;22878;48.616;35.326;2023-08-08T01:53:56;6.20;;;2.50;;
36963;SDS011;22878;48.616;35.326;2023-08-08T01:56:21;8.60;;;2.80;;
36963;SDS011;22878;48.616;35.326;2023-08-08T01:58:47;7.70;;;2.70;;
36963;SDS011;22878;48.616;35.326;2023-08-08T02:01:12;5.60;;;2.60;;
36963;SDS011;22878;48.616;35.326;2023-08-08T02:03:38;5.20;;;2.70;;
36963;SDS011;22878;48.616;35.326;2023-08-08T02:06:03;4.10;;;2.20;;
36963;SDS011;22878;48.616;35.326;2023-08-08T02:08:29;4.90;;;2.70;;
36963;SDS011;22878;48.616;35.326;2023-08-08T02:10:54;4.70;;;2.50;;
36963;SDS011;22878;48.616;35.326;2023-08-08T02:13:20;7.20;;;2.70;;
36963;SDS011;22878;48.616;35.326;2023-08-08T02:15:45;6.00;;;2.80;;
36963;SDS011;22878;48.616;35.326;2023-08-08T02:18:11;3.40;;;2.60;;
36963;SDS011;22878;48.616;35.326;2023-08-08T02:20:36;7.00;;;2.60;;
36963;SDS011;22878;48.616;35.326;2023-08-08T02:23:02;7.60;;;3.00;;
36963;SDS011;22878;48.616;35.326;2023-08-08T02:25:28;9.20;;;3.20;;
36963;SDS011;22878;48.616;35.326;2023-08-08T02:27:55;5.70;;;2.70;;
36963;SDS011;22878;48.616;35.326;2023-08-08T02:30:21;7.80;;;3.20;;
36963;SDS011;22878;48.616;35.326;2023-08-08T02:32:47;4.60;;;2.90;;
36963;SDS011;22878;48.616;35.326;2023-08-08T02:35:12;6.00;;;3.10;;
36963;SDS011;22878;48.616;35.326;2023-08-08T02:37:38;6.90;;;2.90;;
36963;SDS011;22878;48.616;35.326;2023-08-08T02:40:04;6.00;;;2.80;;
36963;SDS011;22878;48.616;35.326;2023-08-08T02:42:30;10.00;;;3.20;;
36963;SDS011;22878;48.616;35.326;2023-08-08T02:44:56;6.20;;;3.20;;
36963;SDS011;22878;48.616;35.326;2023-08-08T02:47:21;8.90;;;3.70;;
36963;SDS011;22878;48.616;35.326;2023-08-08T02:49:47;10.10;;;3.20;;
36963;SDS011;22878;48.616;35.326;2023-08-08T02:52:12;8.50;;;3.90;;
36963;SDS011;22878;48.616;35.326;2023-08-08T02:54:38;6.70;;;3.30;;
36963;SDS011;22878;48.616;35.326;2023-08-08T02:57:03;10.80;;;3.70;;
36963;SDS011;22878;48.616;35.326;2023-08-08T02:59:29;7.90;;;3.60;;
36963;SDS011;22878;48.616;35.326;2023-08-08T03:01:54;7.40;;;3.80;;
36963;SDS011;22878;48.616;35.326;2023-08-08T03:04:20;12.80;;;4.30;;
36963;SDS011;22878;48.616;35.326;2023-08-08T03:06:45;13.30;;;4.60;;
36963;SDS011;22878;48.616;35.326;2023-08-08T03:09:11;10.30;;;4.00;;
36963;SDS011;22878;48.616;35.326;2023-08-08T03:11:36;7.50;;;3.60;;
36963;SDS011;22878;48.616;35.326;2023-08-08T03:14:02;10.10;;;4.40;;
36963;SDS011;22878;48.616;35.326;2023-08-08T03:16:28;10.10;;;4.70;;
36963;SDS011;22878;48.616;35.326;2023-08-08T03:18:53;12.70;;;4.80;;
36963;SDS011;22878;48.616;35.326;2023-08-08T03:21:20;14.40;;;4.70;;
36963;SDS011;22878;48.616;35.326;2023-08-08T03:23:45;12.00;;;4.30;;
36963;SDS011;22878;48.616;35.326;2023-08-08T03:26:11;15.10;;;4.30;;
36963;SDS011;22878;48.616;35.326;2023-08-08T03:28:36;12.20;;;4.00;;
36963;SDS011;22878;48.616;35.326;2023-08-08T03:31:02;10.00;;;4.60;;
36963;SDS011;22878;48.616;35.326;2023-08-08T03:33:28;10.30;;;4.00;;
36963;SDS011;22878;48.616;35.326;2023-08-08T03:35:53;9.40;;;4.00;;
36963;SDS011;22878;48.616;35.326;2023-08-08T03:38:19;10.20;;;3.80;;
36963;SDS011;22878;48.616;35.326;2023-08-08T03:40:44;5.70;;;3.20;;
36963;SDS011;22878;48.616;35.326;2023-08-08T03:43:10;6.90;;;3.30;;
36963;SDS011;22878;48.616;35.326;2023-08-08T03:45:35;10.80;;;2.80;;
36963;SDS011;22878;48.616;35.326;2023-08-08T03:48:01;7.40;;;3.20;;
36963;SDS011;22878;48.616;35.326;2023-08-08T03:50:26;8.80;;;3.00;;
36963;SDS011;22878;48.616;35.326;2023-08-08T03:52:52;5.00;;;2.90;;
36963;SDS011;22878;48.616;35.326;2023-08-08T03:55:18;4.70;;;2.90;;
36963;SDS011;22878;48.616;35.326;2023-08-08T03:57:43;7.10;;;2.80;;
36963;SDS011;22878;48.616;35.326;2023-08-08T04:00:09;6.20;;;3.20;;
36963;SDS011;22878;48.616;35.326;2023-08-08T04:02:36;10.10;;;2.80;;
36963;SDS011;22878;48.616;35.326;2023-08-08T04:05:02;8.40;;;2.80;;
36963;SDS011;22878;48.616;35.326;2023-08-08T04:07:27;9.40;;;3.10;;
36963;SDS011;22878;48.616;35.326;2023-08-08T04:09:53;10.30;;;3.40;;
36963;SDS011;22878;48.616;35.326;2023-08-08T04:12:18;10.60;;;3.20;;
36963;SDS011;22878;48.616;35.326;2023-08-08T04:14:44;5.30;;;2.70;;
36963;SDS011;22878;48.616;35.326;2023-08-08T04:17:09;12.70;;;3.20;;
36963;SDS011;22878;48.616;35.326;2023-08-08T04:19:35;6.60;;;3.30;;
36963;SDS011;22878;48.616;35.326;2023-08-08T04:22:00;5.60;;;3.30;;
36963;SDS011;22878;48.616;35.326;2023-08-08T04:24:26;6.80;;;3.00;;
36963;SDS011;22878;48.616;35.326;2023-08-08T04:26:51;6.60;;;2.70;;
36963;SDS011;22878;48.616;35.326;2023-08-08T04:29:17;6.40;;;3.00;;
36963;SDS011;22878;48.616;35.326;2023-08-08T04:31:42;4.80;;;2.90;;
36963;SDS011;22878;48.616;35.326;2023-08-08T04:34:08;6.70;;;3.10;;
36963;SDS011;22878;48.616;35.326;2023-08-08T04:36:33;8.70;;;3.50;;
36963;SDS011;22878;48.616;35.326;2023-08-08T04:38:59;8.30;;;3.80;;
36963;SDS011;22878;48.616;35.326;2023-08-08T04:41:24;8.30;;;3.80;;
36963;SDS011;22878;48.616;35.326;2023-08-08T04:43:50;7.70;;;3.70;;
36963;SDS011;22878;48.616;35.326;2023-08-08T04:46:15;7.10;;;3.90;;
36963;SDS011;22878;48.616;35.326;2023-08-08T04:48:40;6.50;;;3.50;;
36963;SDS011;22878;48.616;35.326;2023-08-08T04:51:06;17.80;;;3.70;;
36963;SDS011;22878;48.616;35.326;2023-08-08T04:53:34;5.50;;;3.10;;
36963;SDS011;22878;48.616;35.326;2023-08-08T04:55:59;9.30;;;3.50;;
36963;SDS011;22878;48.616;35.326;2023-08-08T04:58:25;5.70;;;3.00;;
36963;SDS011;22878;48.616;35.326;2023-08-08T05:00:50;8.00;;;3.10;;
36963;SDS011;22878;48.616;35.326;2023-08-08T05:03:16;5.90;;;2.60;;
36963;SDS011;22878;48.616;35.326;2023-08-08T05:05:42;6.30;;;2.80;;
36963;SDS011;22878;48.616;35.326;2023-08-08T05:08:10;5.00;;;2.60;;
36963;SDS011;22878;48.616;35.326;2023-08-08T05:10:36;4.40;;;2.90;;
36963;SDS011;22878;48.616;35.326;2023-08-08T05:13:02;2.70;;;2.30;;
36963;SDS011;22878;48.616;35.326;2023-08-08T05:15:28;4.70;;;2.50;;
36963;SDS011;22878;48.616;35.326;2023-08-08T05:17:53;7.50;;;2.70;;
36963;SDS011;22878;48.616;35.326;2023-08-08T05:20:20;4.80;;;2.80;;
36963;SDS011;22878;48.616;35.326;2023-08-08T05:22:46;4.90;;;3.00;;
36963;SDS011;22878;48.616;35.326;2023-08-08T05:25:12;3.50;;;2.80;;
36963;SDS011;22878;48.616;35.326;2023-08-08T05:27:38;3.00;;;2.60;;
36963;SDS011;22878;48.616;35.326;2023-08-08T05:30:03;4.20;;;2.90;;
36963;SDS011;22878;48.616;35.326;2023-08-08T05:32:29;3.90;;;2.70;;
36963;SDS011;22878;48.616;35.326;2023-08-08T05:34:55;7.40;;;2.80;;
36963;SDS011;22878;48.616;35.326;2023-08-08T05:37:22;7.40;;;2.90;;
36963;SDS011;22878;48.616;35.326;2023-08-08T05:39:48;4.90;;;3.30;;
36963;SDS011;22878;48.616;35.326;2023-08-08T05:42:14;4.10;;;2.80;;
36963;SDS011;22878;48.616;35.326;2023-08-08T05:44:39;8.40;;;3.00;;
36963;SDS011;22878;48.616;35.326;2023-08-08T05:47:07;4.60;;;3.40;;
36963;SDS011;22878;48.616;35.326;2023-08-08T05:49:32;3.80;;;3.30;;
36963;SDS011;22878;48.616;35.326;2023-08-08T05:51:58;3.70;;;2.80;;
36963;SDS011;22878;48.616;35.326;2023-08-08T05:54:23;5.10;;;3.80;;
36963;SDS011;22878;48.616;35.326;2023-08-08T05:56:48;7.30;;;3.50;;
36963;SDS011;22878;48.616;35.326;2023-08-08T05:59:14;7.60;;;3.30;;
36963;SDS011;22878;48.616;35.326;2023-08-08T06:01:39;8.90;;;3.30;;
36963;SDS011;22878;48.616;35.326;2023-08-08T06:04:05;4.90;;;3.30;;
36963;SDS011;22878;48.616;35.326;2023-08-08T06:06:30;5.20;;;3.70;;
36963;SDS011;22878;48.616;35.326;2023-08-08T06:08:56;8.00;;;3.70;;
36963;SDS011;22878;48.616;35.326;2023-08-08T06:11:22;3.80;;;3.30;;
36963;SDS011;22878;48.616;35.326;2023-08-08T06:13:47;7.80;;;3.40;;
36963;SDS011;22878;48.616;35.326;2023-08-08T06:16:13;6.10;;;3.70;;
36963;SDS011;22878;48.616;35.326;2023-08-08T06:18:40;4.10;;;3.80;;
36963;SDS011;22878;48.616;35.326;2023-08-08T06:21:06;5.30;;;4.00;;
36963;SDS011;22878;48.616;35.326;2023-08-08T06:23:32;18.10;;;4.40;;
36963;SDS011;22878;48.616;35.326;2023-08-08T06:25:57;6.10;;;3.90;;
36963;SDS011;22878;48.616;35.326;2023-08-08T06:28:23;4.40;;;4.00;;
36963;SDS011;22878;48.616;35.326;2023-08-08T06:30:49;5.80;;;4.10;;
36963;SDS011;22878;48.616;35.326;2023-08-08T06:33:14;5.30;;;4.10;;
36963;SDS011;22878;48.616;35.326;2023-08-08T06:35:40;4.60;;;4.20;;
36963;SDS011;22878;48.616;35.326;2023-08-08T06:38:07;7.10;;;4.60;;
36963;SDS011;22878;48.616;35.326;2023-08-08T06:40:34;6.90;;;5.10;;
36963;SDS011;22878;48.616;35.326;2023-08-08T06:42:59;5.80;;;4.60;;
36963;SDS011;22878;48.616;35.326;2023-08-08T06:48:46;6.80;;;5.80;;
36963;SDS011;22878;48.616;35.326;2023-08-08T06:51:13;7.30;;;5.10;;
36963;SDS011;22878;48.616;35.326;2023-08-08T06:53:38;10.60;;;5.20;;
36963;SDS011;22878;48.616;35.326;2023-08-08T06:56:04;6.80;;;5.70;;
36963;SDS011;22878;48.616;35.326;2023-08-08T06:58:29;8.10;;;5.40;;
36963;SDS011;22878;48.616;35.326;2023-08-08T07:00:55;10.00;;;5.10;;
36963;SDS011;22878;48.616;35.326;2023-08-08T07:03:20;8.30;;;5.10;;
36963;SDS011;22878;48.616;35.326;2023-08-08T07:05:46;7.90;;;5.30;;
36963;SDS011;22878;48.616;35.326;2023-08-08T07:08:12;7.00;;;4.80;;
36963;SDS011;22878;48.616;35.326;2023-08-08T07:10:38;8.50;;;4.90;;
36963;SDS011;22878;48.616;35.326;2023-08-08T07:13:04;8.60;;;5.70;;
36963;SDS011;22878;48.616;35.326;2023-08-08T07:15:29;8.10;;;5.70;;
36963;SDS011;22878;48.616;35.326;2023-08-08T07:17:56;12.90;;;5.80;;
36963;SDS011;22878;48.616;35.326;2023-08-08T07:20:21;9.00;;;6.90;;
36963;SDS011;22878;48.616;35.326;2023-08-08T07:22:47;18.10;;;7.10;;
36963;SDS011;22878;48.616;35.326;2023-08-08T07:25:13;7.40;;;6.20;;
36963;SDS011;22878;48.616;35.326;2023-08-08T07:27:38;8.80;;;6.50;;
36963;SDS011;22878;48.616;35.326;2023-08-08T07:33:25;11.20;;;6.50;;
36963;SDS011;22878;48.616;35.326;2023-08-08T07:35:51;8.60;;;5.80;;
36963;SDS011;22878;48.616;35.326;2023-08-08T07:38:16;8.60;;;5.60;;
36963;SDS011;22878;48.616;35.326;2023-08-08T07:40:42;7.40;;;5.80;;
36963;SDS011;22878;48.616;35.326;2023-08-08T07:43:07;6.60;;;6.00;;
36963;SDS011;22878;48.616;35.326;2023-08-08T07:45:33;11.50;;;6.60;;
36963;SDS011;22878;48.616;35.326;2023-08-08T07:47:58;6.70;;;6.00;;
36963;SDS011;22878;48.616;35.326;2023-08-08T07:50:24;8.90;;;6.00;;
36963;SDS011;22878;48.616;35.326;2023-08-08T07:52:49;11.10;;;5.90;;
36963;SDS011;22878;48.616;35.326;2023-08-08T07:55:14;6.40;;;5.70;;
36963;SDS011;22878;48.616;35.326;2023-08-08T07:57:40;5.70;;;4.70;;
36963;SDS011;22878;48.616;35.326;2023-08-08T08:00:06;7.30;;;5.80;;
36963;SDS011;22878;48.616;35.326;2023-08-08T08:02:43;8.10;;;5.20;;
36963;SDS011;22878;48.616;35.326;2023-08-08T08:05:09;6.40;;;5.30;;
36963;SDS011;22878;48.616;35.326;2023-08-08T08:07:35;10.80;;;6.20;;
36963;SDS011;22878;48.616;35.326;2023-08-08T08:10:02;11.70;;;5.70;;
36963;SDS011;22878;48.616;35.326;2023-08-08T08:12:29;6.50;;;4.40;;
36963;SDS011;22878;48.616;35.326;2023-08-08T08:14:55;7.90;;;4.70;;
36963;SDS011;22878;48.616;35.326;2023-08-08T08:17:20;9.40;;;5.10;;
36963;SDS011;22878;48.616;35.326;2023-08-08T08:19:46;7.30;;;5.20;;
36963;SDS011;22878;48.616;35.326;2023-08-08T08:22:12;7.20;;;5.10;;
36963;SDS011;22878;48.616;35.326;2023-08-08T08:24:37;7.10;;;5.00;;
36963;SDS011;22878;48.616;35.326;2023-08-08T08:27:03;8.70;;;6.10;;
36963;SDS011;22878;48.616;35.326;2023-08-08T08:29:28;13.70;;;6.80;;
36963;SDS011;22878;48.616;35.326;2023-08-08T08:31:54;8.50;;;5.80;;
36963;SDS011;22878;48.616;35.326;2023-08-08T08:34:19;12.90;;;6.00;;
36963;SDS011;22878;48.616;35.326;2023-08-08T08:36:45;7.50;;;5.70;;
36963;SDS011;22878;48.616;35.326;2023-08-08T08:39:10;7.80;;;5.50;;
36963;SDS011;22878;48.616;35.326;2023-08-08T08:41:35;10.00;;;6.00;;
36963;SDS011;22878;48.616;35.326;2023-08-08T08:44:04;10.40;;;6.70;;
36963;SDS011;22878;48.616;35.326;2023-08-08T08:46:33;10.40;;;6.30;;
36963;SDS011;22878;48.616;35.326;2023-08-08T08:49:01;8.50;;;5.10;;
36963;SDS011;22878;48.616;35.326;2023-08-08T08:51:28;9.90;;;4.60;;
36963;SDS011;22878;48.616;35.326;2023-08-08T08:53:53;8.70;;;4.90;;
36963;SDS011;22878;48.616;35.326;2023-08-08T08:56:19;16.50;;;8.90;;
36963;SDS011;22878;48.616;35.326;2023-08-08T08:58:45;24.80;;;12.50;;
36963;SDS011;22878;48.616;35.326;2023-08-08T09:01:11;18.00;;;9.90;;
36963;SDS011;22878;48.616;35.326;2023-08-08T09:03:36;15.10;;;7.00;;
36963;SDS011;22878;48.616;35.326;2023-08-08T09:06:03;13.40;;;7.00;;
36963;SDS011;22878;48.616;35.326;2023-08-08T09:08:30;19.80;;;9.30;;
36963;SDS011;22878;48.616;35.326;2023-08-08T09:10:56;13.60;;;7.70;;
36963;SDS011;22878;48.616;35.326;2023-08-08T09:13:22;12.70;;;6.70;;
36963;SDS011;22878;48.616;35.326;2023-08-08T09:15:50;14.50;;;7.40;;
36963;SDS011;22878;48.616;35.326;2023-08-08T09:18:16;8.30;;;5.30;;
36963;SDS011;22878;48.616;35.326;2023-08-08T09:20:45;6.30;;;3.80;;
36963;SDS011;22878;48.616;35.326;2023-08-08T09:25:38;3.90;;;3.00;;
36963;SDS011;22878;48.616;35.326;2023-08-08T09:28:03;5.50;;;2.90;;
36963;SDS011;22878;48.616;35.326;2023-08-08T09:30:29;3.10;;;2.60;;
36963;SDS011;22878;48.616;35.326;2023-08-08T09:32:58;5.40;;;2.50;;
36963;SDS011;22878;48.616;35.326;2023-08-08T09:35:24;4.40;;;2.50;;
36963;SDS011;22878;48.616;35.326;2023-08-08T09:37:51;2.90;;;1.70;;
36963;SDS011;22878;48.616;35.326;2023-08-08T09:40:18;5.60;;;2.10;;
36963;SDS011;22878;48.616;35.326;2023-08-08T09:42:46;3.10;;;1.80;;
36963;SDS011;22878;48.616;35.326;2023-08-08T09:45:12;2.80;;;2.00;;
36963;SDS011;22878;48.616;35.326;2023-08-08T09:47:37;4.80;;;2.10;;
36963;SDS011;22878;48.616;35.326;2023-08-08T09:50:03;5.30;;;2.40;;
36963;SDS011;22878;48.616;35.326;2023-08-08T09:52:30;2.60;;;1.90;;
36963;SDS011;22878;48.616;35.326;2023-08-08T09:54:56;2.50;;;1.90;;
36963;SDS011;22878;48.616;35.326;2023-08-08T09:57:23;2.20;;;2.00;;
36963;SDS011;22878;48.616;35.326;2023-08-08T09:59:49;3.00;;;2.10;;
36963;SDS011;22878;48.616;35.326;2023-08-08T10:02:16;4.30;;;1.70;;
36963;SDS011;22878;48.616;35.326;2023-08-08T10:04:44;2.00;;;1.60;;
36963;SDS011;22878;48.616;35.326;2023-08-08T10:07:10;2.70;;;1.80;;
36963;SDS011;22878;48.616;35.326;2023-08-08T10:09:36;3.90;;;1.70;;
36963;SDS011;22878;48.616;35.326;2023-08-08T10:12:02;3.10;;;1.60;;
36963;SDS011;22878;48.616;35.326;2023-08-08T10:14:34;1.70;;;1.60;;
36963;SDS011;22878;48.616;35.326;2023-08-08T10:17:05;1.50;;;1.40;;
36963;SDS011;22878;48.616;35.326;2023-08-08T10:19:31;5.90;;;2.00;;
36963;SDS011;22878;48.616;35.326;2023-08-08T10:22:03;2.00;;;1.50;;
36963;SDS011;22878;48.616;35.326;2023-08-08T10:24:33;3.50;;;1.90;;
36963;SDS011;22878;48.616;35.326;2023-08-08T10:27:01;4.40;;;2.00;;
36963;SDS011;22878;48.616;35.326;2023-08-08T10:29:28;4.20;;;2.00;;
36963;SDS011;22878;48.616;35.326;2023-08-08T10:32:04;5.40;;;3.50;;
36963;SDS011;22878;48.616;35.326;2023-08-08T10:34:41;13.90;;;3.70;;
36963;SDS011;22878;48.616;35.326;2023-08-08T10:37:11;5.80;;;3.40;;
36963;SDS011;22878;48.616;35.326;2023-08-08T10:42:43;4.60;;;2.30;;
36963;SDS011;22878;48.616;35.326;2023-08-08T10:45:11;8.40;;;3.30;;
36963;SDS011;22878;48.616;35.326;2023-08-08T10:47:40;8.00;;;3.50;;
36963;SDS011;22878;48.616;35.326;2023-08-08T10:50:10;7.20;;;3.70;;
36963;SDS011;22878;48.616;35.326;2023-08-08T10:52:38;11.40;;;4.40;;
36963;SDS011;22878;48.616;35.326;2023-08-08T10:55:24;15.00;;;5.80;;
36963;SDS011;22878;48.616;35.326;2023-08-08T10:58:09;16.60;;;5.10;;
36963;SDS011;22878;48.616;35.326;2023-08-08T11:00:38;6.80;;;4.00;;
36963;SDS011;22878;48.616;35.326;2023-08-08T11:03:05;12.20;;;5.40;;
36963;SDS011;22878;48.616;35.326;2023-08-08T11:05:34;15.00;;;6.30;;
36963;SDS011;22878;48.616;35.326;2023-08-08T11:08:01;10.00;;;5.30;;
36963;SDS011;22878;48.616;35.326;2023-08-08T11:10:27;11.10;;;5.70;;
36963;SDS011;22878;48.616;35.326;2023-08-08T11:13:00;8.40;;;4.40;;
36963;SDS011;22878;48.616;35.326;2023-08-08T11:15:28;7.90;;;4.50;;
36963;SDS011;22878;48.616;35.326;2023-08-08T11:17:55;14.70;;;4.40;;
36963;SDS011;22878;48.616;35.326;2023-08-08T11:20:21;8.10;;;4.50;;
36963;SDS011;22878;48.616;35.326;2023-08-08T11:22:52;10.80;;;4.90;;
36963;SDS011;22878;48.616;35.326;2023-08-08T11:25:18;12.00;;;4.90;;
36963;SDS011;22878;48.616;35.326;2023-08-08T11:27:53;15.10;;;5.90;;
36963;SDS011;22878;48.616;35.326;2023-08-08T11:30:20;11.10;;;4.80;;
36963;SDS011;22878;48.616;35.326;2023-08-08T11:32:47;9.30;;;4.80;;
36963;SDS011;22878;48.616;35.326;2023-08-08T11:35:17;12.10;;;4.40;;
36963;SDS011;22878;48.616;35.326;2023-08-08T11:37:46;10.60;;;4.10;;
36963;SDS011;22878;48.616;35.326;2023-08-08T11:40:12;8.70;;;4.00;;
36963;SDS011;22878;48.616;35.326;2023-08-08T11:42:39;14.80;;;4.40;;
36963;SDS011;22878;48.616;35.326;2023-08-08T11:45:06;9.30;;;4.40;;
36963;SDS011;22878;48.616;35.326;2023-08-08T11:47:34;7.90;;;3.60;;
36963;SDS011;22878;48.616;35.326;2023-08-08T11:50:02;8.10;;;3.40;;
36963;SDS011;22878;48.616;35.326;2023-08-08T11:52:29;6.60;;;3.50;;
36963;SDS011;22878;48.616;35.326;2023-08-08T11:55:00;19.80;;;4.80;;
36963;SDS011;22878;48.616;35.326;2023-08-08T11:57:26;14.50;;;4.40;;
36963;SDS011;22878;48.616;35.326;2023-08-08T11:59:52;7.40;;;3.80;;
36963;SDS011;22878;48.616;35.326;2023-08-08T12:02:18;5.60;;;3.00;;
36963;SDS011;22878;48.616;35.326;2023-08-08T12:04:44;11.40;;;3.50;;
36963;SDS011;22878;48.616;35.326;2023-08-08T12:07:11;7.30;;;3.20;;
36963;SDS011;22878;48.616;35.326;2023-08-08T12:09:37;7.00;;;3.30;;
36963;SDS011;22878;48.616;35.326;2023-08-08T12:12:03;5.50;;;3.00;;
36963;SDS011;22878;48.616;35.326;2023-08-08T12:14:29;7.10;;;3.50;;
36963;SDS011;22878;48.616;35.326;2023-08-08T12:16:55;7.30;;;3.30;;
36963;SDS011;22878;48.616;35.326;2023-08-08T12:19:24;5.80;;;3.10;;
36963;SDS011;22878;48.616;35.326;2023-08-08T12:21:50;6.00;;;3.30;;
36963;SDS011;22878;48.616;35.326;2023-08-08T12:24:19;6.20;;;3.40;;
36963;SDS011;22878;48.616;35.326;2023-08-08T12:26:45;6.80;;;3.10;;
36963;SDS011;22878;48.616;35.326;2023-08-08T12:29:11;4.10;;;2.70;;
36963;SDS011;22878;48.616;35.326;2023-08-08T12:31:37;12.50;;;3.40;;
36963;SDS011;22878;48.616;35.326;2023-08-08T12:34:03;10.20;;;2.90;;
36963;SDS011;22878;48.616;35.326;2023-08-08T12:36:29;6.60;;;3.00;;
36963;SDS011;22878;48.616;35.326;2023-08-08T12:38:55;9.70;;;3.20;;
36963;SDS011;22878;48.616;35.326;2023-08-08T12:41:20;6.90;;;3.20;;
36963;SDS011;22878;48.616;35.326;2023-08-08T12:43:46;6.70;;;3.40;;
36963;SDS011;22878;48.616;35.326;2023-08-08T12:46:11;6.80;;;3.20;;
36963;SDS011;22878;48.616;35.326;2023-08-08T12:48:37;6.40;;;2.50;;
36963;SDS011;22878;48.616;35.326;2023-08-08T12:51:02;5.20;;;2.50;;
36963;SDS011;22878;48.616;35.326;2023-08-08T12:53:28;5.60;;;2.70;;
36963;SDS011;22878;48.616;35.326;2023-08-08T12:55:54;3.80;;;2.50;;
36963;SDS011;22878;48.616;35.326;2023-08-08T12:58:20;5.10;;;2.30;;
36963;SDS011;22878;48.616;35.326;2023-08-08T13:00:45;5.40;;;2.30;;
36963;SDS011;22878;48.616;35.326;2023-08-08T13:03:11;8.70;;;2.40;;
36963;SDS011;22878;48.616;35.326;2023-08-08T13:05:38;7.00;;;2.50;;
36963;SDS011;22878;48.616;35.326;2023-08-08T13:08:03;4.20;;;2.20;;
36963;SDS011;22878;48.616;35.326;2023-08-08T13:10:29;14.70;;;2.70;;
36963;SDS011;22878;48.616;35.326;2023-08-08T13:12:55;11.60;;;2.70;;
36963;SDS011;22878;48.616;35.326;2023-08-08T13:15:21;15.30;;;2.30;;
36963;SDS011;22878;48.616;35.326;2023-08-08T13:17:47;8.40;;;2.20;;
36963;SDS011;22878;48.616;35.326;2023-08-08T13:20:12;4.20;;;2.30;;
36963;SDS011;22878;48.616;35.326;2023-08-08T13:22:38;3.60;;;2.20;;
36963;SDS011;22878;48.616;35.326;2023-08-08T13:25:04;6.80;;;2.00;;
36963;SDS011;22878;48.616;35.326;2023-08-08T13:27:31;13.00;;;1.90;;
36963;SDS011;22878;48.616;35.326;2023-08-08T13:29:57;4.40;;;2.10;;
36963;SDS011;22878;48.616;35.326;2023-08-08T13:32:23;4.80;;;2.30;;
36963;SDS011;22878;48.616;35.326;2023-08-08T13:34:48;4.90;;;2.30;;
36963;SDS011;22878;48.616;35.326;2023-08-08T13:37:15;3.60;;;1.80;;
36963;SDS011;22878;48.616;35.326;2023-08-08T13:39:40;3.30;;;1.80;;
36963;SDS011;22878;48.616;35.326;2023-08-08T13:42:06;4.30;;;1.60;;
36963;SDS011;22878;48.616;35.326;2023-08-08T13:44:33;5.40;;;1.70;;
36963;SDS011;22878;48.616;35.326;2023-08-08T13:46:59;5.50;;;2.10;;
36963;SDS011;22878;48.616;35.326;2023-08-08T13:49:24;5.10;;;1.90;;
36963;SDS011;22878;48.616;35.326;2023-08-08T13:51:53;3.40;;;2.00;;
36963;SDS011;22878;48.616;35.326;2023-08-08T13:54:19;3.10;;;1.70;;
36963;SDS011;22878;48.616;35.326;2023-08-08T13:56:45;10.40;;;2.00;;
36963;SDS011;22878;48.616;35.326;2023-08-08T13:59:10;7.00;;;1.60;;
36963;SDS011;22878;48.616;35.326;2023-08-08T14:01:36;8.00;;;2.00;;
36963;SDS011;22878;48.616;35.326;2023-08-08T14:04:02;7.60;;;1.70;;
36963;SDS011;22878;48.616;35.326;2023-08-08T14:06:27;5.10;;;2.20;;
36963;SDS011;22878;48.616;35.326;2023-08-08T14:08:53;3.20;;;1.80;;
36963;SDS011;22878;48.616;35.326;2023-08-08T14:11:19;1.90;;;1.60;;
36963;SDS011;22878;48.616;35.326;2023-08-08T14:13:44;2.30;;;1.60;;
36963;SDS011;22878;48.616;35.326;2023-08-08T14:16:10;2.30;;;1.80;;
36963;SDS011;22878;48.616;35.326;2023-08-08T14:18:35;3.20;;;1.80;;
36963;SDS011;22878;48.616;35.326;2023-08-08T14:21:01;19.00;;;2.40;;
36963;SDS011;22878;48.616;35.326;2023-08-08T14:23:29;4.30;;;2.30;;
36963;SDS011;22878;48.616;35.326;2023-08-08T14:25:55;10.40;;;2.40;;
36963;SDS011;22878;48.616;35.326;2023-08-08T14:28:20;5.90;;;2.20;;
36963;SDS011;22878;48.616;35.326;2023-08-08T14:30:46;4.80;;;2.00;;
36963;SDS011;22878;48.616;35.326;2023-08-08T14:33:13;3.80;;;2.10;;
36963;SDS011;22878;48.616;35.326;2023-08-08T14:35:39;10.80;;;2.30;;
36963;SDS011;22878;48.616;35.326;2023-08-08T14:38:04;3.00;;;1.80;;